createdAt,value
2018-02-23T00:02:07.433Z,-3.40
2018-02-23T00:04:34.998Z,-3.40
2018-02-23T00:07:02.518Z,-3.40
2018-02-23T00:09:30.055Z,-3.40
2018-02-23T00:11:57.630Z,-3.40
2018-02-23T00:14:25.178Z,-3.40
2018-02-23T00:16:52.716Z,-3.40
2018-02-23T00:19:20.281Z,-3.40
2018-02-23T00:21:47.806Z,-3.40
2018-02-23T00:24:15.331Z,-3.40
2018-02-23T00:26:42.882Z,-3.30
2018-02-23T00:29:10.433Z,-3.40
2018-02-23T00:31:37.972Z,-3.40
2018-02-23T00:34:05.517Z,-3.40
2018-02-23T00:36:33.035Z,-3.30
2018-02-23T00:39:00.603Z,-3.30
2018-02-23T00:41:28.921Z,-3.40
2018-02-23T00:43:56.451Z,-3.40
2018-02-23T00:46:24.768Z,-3.40
2018-02-23T00:48:52.331Z,-3.40
2018-02-23T00:51:19.858Z,-3.40
2018-02-23T00:53:47.392Z,-3.30
2018-02-23T00:56:15.710Z,-3.40
2018-02-23T00:58:43.228Z,-3.40
2018-02-23T01:01:11.534Z,-3.40
2018-02-23T01:03:39.120Z,-3.40
2018-02-23T01:06:06.654Z,-3.40
2018-02-23T01:08:34.193Z,-3.50
2018-02-23T01:11:02.501Z,-3.50
2018-02-23T01:13:30.054Z,-3.50
2018-02-23T01:15:57.586Z,-3.50
2018-02-23T01:18:25.913Z,-3.50
2018-02-23T01:20:53.452Z,-3.50
2018-02-23T01:23:20.978Z,-3.50
2018-02-23T01:25:49.306Z,-3.60
2018-02-23T01:28:16.831Z,-3.60
2018-02-23T01:30:44.357Z,-3.50
2018-02-23T01:33:12.719Z,-3.50
2018-02-23T01:35:40.341Z,-3.50
2018-02-23T01:38:07.869Z,-3.50
2018-02-23T01:40:36.191Z,-3.60
2018-02-23T01:43:03.742Z,-3.60
2018-02-23T01:45:31.282Z,-3.60
2018-02-23T01:47:58.831Z,-3.60
2018-02-23T01:50:27.142Z,-3.60
2018-02-23T01:52:54.693Z,-3.60
2018-02-23T01:55:22.257Z,-3.60
2018-02-23T01:57:49.776Z,-3.50
2018-02-23T02:00:18.062Z,-3.60
2018-02-23T02:02:46.409Z,-3.70
2018-02-23T02:05:13.944Z,-3.70
2018-02-23T02:07:41.493Z,-3.60
2018-02-23T02:10:09.044Z,-3.60
2018-02-23T02:12:36.582Z,-3.60
2018-02-23T02:15:04.120Z,-3.60
2018-02-23T02:17:32.456Z,-3.60
2018-02-23T02:20:00.008Z,-3.60
2018-02-23T02:22:27.543Z,-3.60
2018-02-23T02:24:55.091Z,-3.60
2018-02-23T02:27:23.407Z,-3.50
2018-02-23T02:29:50.941Z,-3.60
2018-02-23T02:32:18.525Z,-3.50
2018-02-23T02:34:46.041Z,-3.50
2018-02-23T02:37:14.336Z,-3.50
2018-02-23T02:39:41.923Z,-3.50
2018-02-23T02:42:09.451Z,-3.50
2018-02-23T02:44:36.991Z,-3.60
2018-02-23T02:47:05.317Z,-3.60
2018-02-23T02:49:32.857Z,-3.60
2018-02-23T02:52:00.424Z,-3.60
2018-02-23T02:54:27.987Z,-3.60
2018-02-23T02:56:55.507Z,-3.50
2018-02-23T02:59:23.796Z,-3.60
2018-02-23T03:01:51.364Z,-3.70
2018-02-23T03:04:18.892Z,-3.70
2018-02-23T03:06:46.431Z,-3.70
2018-02-23T03:09:13.982Z,-3.60
2018-02-23T03:11:41.518Z,-3.50
2018-02-23T03:14:09.055Z,-3.50
2018-02-23T03:16:36.634Z,-3.50
2018-02-23T03:19:04.178Z,-3.50
2018-02-23T03:21:31.713Z,-3.50
2018-02-23T03:24:00.058Z,-3.60
2018-02-23T03:26:27.603Z,-3.60
2018-02-23T03:28:55.134Z,-3.60
2018-02-23T03:31:22.690Z,-3.50
2018-02-23T03:33:50.236Z,-3.50
2018-02-23T03:36:18.553Z,-3.50
2018-02-23T03:38:46.123Z,-3.50
2018-02-23T03:41:13.650Z,-3.50
2018-02-23T03:43:41.192Z,-3.50
2018-02-23T03:46:09.527Z,-3.50
2018-02-23T03:48:37.060Z,-3.50
2018-02-23T03:51:04.584Z,-3.50
2018-02-23T03:53:32.904Z,-3.50
2018-02-23T03:56:00.463Z,-3.50
2018-02-23T03:58:27.984Z,-3.60
2018-02-23T04:00:56.324Z,-3.60
2018-02-23T04:03:23.868Z,-3.60
2018-02-23T04:05:51.425Z,-3.70
2018-02-23T04:08:18.958Z,-3.70
2018-02-23T04:10:46.500Z,-3.70
2018-02-23T04:13:14.824Z,-3.60
2018-02-23T04:15:42.355Z,-3.60
2018-02-23T04:18:09.891Z,-3.70
2018-02-23T04:20:38.182Z,-3.70
2018-02-23T04:23:05.735Z,-3.70
2018-02-23T04:25:33.292Z,-3.80
2018-02-23T04:28:00.811Z,-3.80
2018-02-23T04:30:28.367Z,-3.70
2018-02-23T04:32:55.911Z,-3.60
2018-02-23T04:35:23.459Z,-3.70
2018-02-23T04:37:50.999Z,-3.70
2018-02-23T04:40:18.550Z,-3.70
2018-02-23T04:42:46.105Z,-3.70
2018-02-23T04:45:14.413Z,-3.70
2018-02-23T04:47:41.951Z,-3.70
2018-02-23T04:50:09.525Z,-3.70
2018-02-23T04:52:37.044Z,-3.80
2018-02-23T04:55:05.348Z,-3.70
2018-02-23T04:57:32.897Z,-3.80
2018-02-23T05:00:00.417Z,-3.70
2018-02-23T05:02:27.977Z,-3.80
2018-02-23T05:04:55.536Z,-3.90
2018-02-23T05:07:23.085Z,-3.90
2018-02-23T05:09:50.643Z,-3.90
2018-02-23T05:12:18.196Z,-4.00
2018-02-23T05:14:45.796Z,-4.00
2018-02-23T05:17:14.093Z,-4.00
2018-02-23T05:19:41.620Z,-4.00
2018-02-23T05:22:09.157Z,-4.10
2018-02-23T05:24:36.695Z,-4.10
2018-02-23T05:27:04.239Z,-4.00
2018-02-23T05:29:31.788Z,-4.00
2018-02-23T05:31:59.339Z,-4.00
2018-02-23T05:34:27.646Z,-3.90
2018-02-23T05:36:55.204Z,-4.00
2018-02-23T05:39:22.761Z,-3.90
2018-02-23T05:41:50.287Z,-3.90
2018-02-23T05:44:18.578Z,-3.90
2018-02-23T05:46:46.153Z,-3.90
2018-02-23T05:49:13.692Z,-3.90
2018-02-23T05:51:41.242Z,-3.90
2018-02-23T05:54:09.551Z,-4.00
2018-02-23T05:56:37.121Z,-4.00
2018-02-23T05:59:04.655Z,-3.90
2018-02-23T06:01:32.217Z,-3.90
2018-02-23T06:03:59.737Z,-3.90
2018-02-23T06:06:27.304Z,-3.80
2018-02-23T06:08:55.634Z,-4.00
2018-02-23T06:11:23.173Z,-4.00
2018-02-23T06:13:50.752Z,-3.90
2018-02-23T06:16:24.015Z,-3.90
2018-02-23T06:18:57.244Z,-3.90
2018-02-23T06:21:24.765Z,-4.00
2018-02-23T06:23:53.105Z,-3.90
2018-02-23T06:26:20.651Z,-3.90
2018-02-23T06:28:48.198Z,-3.90
2018-02-23T06:31:15.744Z,-3.90
2018-02-23T06:33:43.284Z,-3.90
2018-02-23T06:36:10.832Z,-3.80
2018-02-23T06:38:39.117Z,-3.80
2018-02-23T06:41:06.669Z,-3.80
2018-02-23T06:43:34.976Z,-3.80
2018-02-23T06:46:02.544Z,-3.80
2018-02-23T06:48:30.065Z,-3.80
2018-02-23T06:50:58.398Z,-3.80
2018-02-23T06:53:25.933Z,-3.80
2018-02-23T06:55:53.453Z,-3.80
2018-02-23T06:58:21.792Z,-3.90
2018-02-23T07:00:49.356Z,-3.90
2018-02-23T07:03:16.915Z,-3.90
2018-02-23T07:05:44.447Z,-3.90
2018-02-23T07:08:12.022Z,-3.80
2018-02-23T07:10:39.576Z,-3.80
2018-02-23T07:13:07.128Z,-3.80
2018-02-23T07:15:34.661Z,-3.80
2018-02-23T07:18:02.214Z,-3.80
2018-02-23T07:20:30.520Z,-3.80
2018-02-23T07:22:58.065Z,-3.80
2018-02-23T07:25:25.609Z,-3.80
2018-02-23T07:27:53.920Z,-3.80
2018-02-23T07:30:21.485Z,-3.80
2018-02-23T07:32:49.784Z,-3.80
2018-02-23T07:35:17.350Z,-3.80
2018-02-23T07:37:44.899Z,-3.90
2018-02-23T07:40:12.470Z,-3.90
2018-02-23T07:42:39.998Z,-3.90
2018-02-23T07:45:07.555Z,-3.90
2018-02-23T07:47:35.067Z,-3.90
2018-02-23T07:50:03.352Z,-3.90
2018-02-23T07:52:31.668Z,-3.80
2018-02-23T07:54:59.212Z,-3.80
2018-02-23T07:57:26.767Z,-3.80
2018-02-23T07:59:54.308Z,-3.80
2018-02-23T08:02:22.624Z,-3.90
2018-02-23T08:04:50.168Z,-3.90
2018-02-23T08:07:17.715Z,-3.90
2018-02-23T08:09:45.244Z,-3.80
2018-02-23T08:12:12.796Z,-3.80
2018-02-23T08:14:40.360Z,-3.80
2018-02-23T08:17:08.661Z,-3.70
2018-02-23T08:19:36.969Z,-3.60
2018-02-23T08:22:04.499Z,-3.70
2018-02-23T08:24:32.800Z,-3.80
2018-02-23T08:27:00.319Z,-3.80
2018-02-23T08:29:28.643Z,-3.90
2018-02-23T08:31:56.163Z,-3.90
2018-02-23T08:34:24.468Z,-3.80
2018-02-23T08:36:52.034Z,-3.80
2018-02-23T08:39:19.558Z,-3.90
2018-02-23T08:41:47.874Z,-3.90
2018-02-23T08:44:15.413Z,-3.90
2018-02-23T08:46:42.962Z,-3.90
2018-02-23T08:49:10.493Z,-3.80
2018-02-23T08:51:38.069Z,-3.80
2018-02-23T08:54:06.375Z,-3.80
2018-02-23T08:56:33.931Z,-3.80
2018-02-23T08:59:01.473Z,-3.70
2018-02-23T09:01:29.009Z,-3.70
2018-02-23T09:03:56.574Z,-3.70
2018-02-23T09:06:24.867Z,-3.80
2018-02-23T09:08:52.426Z,-3.80
2018-02-23T09:11:20.716Z,-3.70
2018-02-23T09:13:48.283Z,-3.70
2018-02-23T09:16:15.810Z,-3.60
2018-02-23T09:18:44.145Z,-3.50
2018-02-23T09:21:11.668Z,-3.50
2018-02-23T09:23:39.207Z,-3.50
2018-02-23T09:26:07.527Z,-3.40
2018-02-23T09:28:35.068Z,-3.40
2018-02-23T09:31:02.616Z,-3.40
2018-02-23T09:33:41.993Z,-3.40
2018-02-23T09:36:09.570Z,-3.40
2018-02-23T09:38:37.109Z,-3.40
2018-02-23T09:41:04.642Z,-3.40
2018-02-23T09:43:32.253Z,-3.40
2018-02-23T09:45:59.803Z,-3.40
2018-02-23T09:48:27.333Z,-3.40
2018-02-23T09:50:54.885Z,-3.40
2018-02-23T09:53:22.433Z,-3.50
2018-02-23T09:55:49.968Z,-3.50
2018-02-23T09:58:18.283Z,-3.60
2018-02-23T10:00:45.811Z,-3.60
2018-02-23T10:03:14.127Z,-3.60
2018-02-23T10:05:41.653Z,-3.60
2018-02-23T10:08:09.971Z,-3.50
2018-02-23T10:10:37.506Z,-3.50
2018-02-23T10:13:05.053Z,-3.50
2018-02-23T10:15:33.780Z,-3.40
2018-02-23T10:18:02.107Z,-3.30
2018-02-23T10:20:30.414Z,-3.30
2018-02-23T10:22:57.946Z,-3.30
2018-02-23T10:25:26.258Z,-3.30
2018-02-23T10:27:53.800Z,-3.30
2018-02-23T10:30:21.348Z,-3.20
2018-02-23T10:32:49.637Z,-3.20
2018-02-23T10:35:17.200Z,-3.20
2018-02-23T10:37:44.732Z,-3.20
2018-02-23T10:40:13.058Z,-3.20
2018-02-23T10:42:40.626Z,-3.20
2018-02-23T10:45:08.173Z,-3.10
2018-02-23T10:47:35.752Z,-3.10
2018-02-23T10:50:03.271Z,-3.10
2018-02-23T10:52:30.806Z,-3.10
2018-02-23T10:54:59.107Z,-3.00
2018-02-23T10:57:26.672Z,-3.00
2018-02-23T10:59:54.205Z,-2.90
2018-02-23T11:02:22.531Z,-2.80
2018-02-23T11:04:50.061Z,-2.90
2018-02-23T11:07:17.611Z,-2.80
2018-02-23T11:09:45.190Z,-2.80
2018-02-23T11:12:12.736Z,-2.80
2018-02-23T11:14:40.301Z,-2.80
2018-02-23T11:17:07.838Z,-2.80
2018-02-23T11:19:36.157Z,-2.80
2018-02-23T11:22:03.703Z,-2.90
2018-02-23T11:24:31.418Z,-2.90
2018-02-23T11:26:58.941Z,-2.80
2018-02-23T11:29:26.497Z,-2.80
2018-02-23T11:31:54.055Z,-2.80
2018-02-23T11:34:21.580Z,-2.80
2018-02-23T11:36:49.919Z,-2.80
2018-02-23T11:39:17.485Z,-2.90
2018-02-23T11:41:45.032Z,-2.90
2018-02-23T11:44:12.568Z,-2.90
2018-02-23T11:46:40.118Z,-3.00
2018-02-23T11:49:07.653Z,-2.90
2018-02-23T11:51:35.984Z,-2.90
2018-02-23T11:54:03.535Z,-2.90
2018-02-23T11:56:31.084Z,-2.90
2018-02-23T11:58:58.639Z,-2.90
2018-02-23T12:01:26.170Z,-2.90
2018-02-23T12:03:53.724Z,-2.90
2018-02-23T12:06:22.012Z,-2.80
2018-02-23T12:08:49.570Z,-2.80
2018-02-23T12:11:17.105Z,-2.80
2018-02-23T12:13:45.439Z,-2.90
2018-02-23T12:16:12.975Z,-2.90
2018-02-23T12:18:40.535Z,-2.90
2018-02-23T12:21:08.086Z,-3.00
2018-02-23T12:23:35.620Z,-3.00
2018-02-23T12:26:03.945Z,-2.90
2018-02-23T12:28:31.474Z,-3.00
2018-02-23T12:30:59.029Z,-3.00
2018-02-23T12:33:27.320Z,-2.90
2018-02-23T12:35:54.859Z,-2.90
2018-02-23T12:38:23.187Z,-2.80
2018-02-23T12:40:50.729Z,-2.80
2018-02-23T12:43:18.296Z,-2.80
2018-02-23T12:45:45.830Z,-2.80
2018-02-23T12:48:13.389Z,-2.80
2018-02-23T12:50:40.939Z,-2.80
2018-02-23T12:53:09.251Z,-2.80
2018-02-23T12:55:36.788Z,-2.80
2018-02-23T12:58:04.330Z,-2.80
2018-02-23T13:00:32.748Z,-2.70
2018-02-23T13:03:00.293Z,-2.70
2018-02-23T13:05:27.822Z,-2.80
2018-02-23T13:07:56.114Z,-2.70
2018-02-23T13:10:23.664Z,-2.80
2018-02-23T13:12:51.959Z,-2.70
2018-02-23T13:15:19.509Z,-2.70
2018-02-23T13:17:47.066Z,-2.70
2018-02-23T13:20:14.642Z,-2.70
2018-02-23T13:22:42.186Z,-2.70
2018-02-23T13:25:09.734Z,-2.60
2018-02-23T13:27:38.032Z,-2.70
2018-02-23T13:30:05.605Z,-2.70
2018-02-23T13:32:33.140Z,-2.80
2018-02-23T13:35:01.456Z,-2.70
2018-02-23T13:37:29.010Z,-2.80
2018-02-23T13:39:56.552Z,-2.70
2018-02-23T13:42:25.620Z,-2.70
2018-02-23T13:44:53.938Z,-2.60
2018-02-23T13:47:21.485Z,-2.60
2018-02-23T13:49:49.028Z,-2.70
2018-02-23T13:52:18.306Z,-2.60
2018-02-23T13:54:53.642Z,-2.70
2018-02-23T13:57:21.203Z,-2.70
2018-02-23T13:59:49.513Z,-2.70
2018-02-23T14:02:17.066Z,-2.70
2018-02-23T14:04:44.651Z,-2.60
2018-02-23T14:07:17.807Z,-2.60
2018-02-23T14:09:46.129Z,-2.50
2018-02-23T14:12:13.647Z,-2.50
2018-02-23T14:14:41.972Z,-2.50
2018-02-23T14:17:09.524Z,-2.50
2018-02-23T14:19:37.072Z,-2.50
2018-02-23T14:22:04.597Z,-2.50
2018-02-23T14:24:32.881Z,-2.50
2018-02-23T14:27:00.416Z,-2.50
2018-02-23T14:29:27.951Z,-2.50
2018-02-23T14:31:55.503Z,-2.60
2018-02-23T14:34:23.040Z,-2.60
2018-02-23T14:36:50.612Z,-2.60
2018-02-23T14:39:18.146Z,-2.60
2018-02-23T14:41:45.726Z,-2.70
2018-02-23T14:44:13.291Z,-2.80
2018-02-23T14:46:40.840Z,-2.70
2018-02-23T14:49:18.250Z,-2.70
2018-02-23T14:51:45.803Z,-2.80
2018-02-23T14:54:14.126Z,-2.80
2018-02-23T14:56:42.446Z,-2.70
2018-02-23T14:59:10.008Z,-2.70
2018-02-23T15:01:37.539Z,-2.70
2018-02-23T15:04:05.869Z,-2.70
2018-02-23T15:06:33.389Z,-2.70
2018-02-23T15:09:00.944Z,-2.70
2018-02-23T15:11:28.486Z,-2.70
2018-02-23T15:13:56.783Z,-2.70
2018-02-23T15:16:24.340Z,-2.70
2018-02-23T15:18:51.895Z,-2.70
2018-02-23T15:21:19.460Z,-2.80
2018-02-23T15:23:46.995Z,-2.70
2018-02-23T15:26:14.585Z,-2.80
2018-02-23T15:28:42.141Z,-2.80
2018-02-23T15:31:21.450Z,-2.80
2018-02-23T15:33:49.781Z,-2.80
2018-02-23T15:36:17.331Z,-2.90
2018-02-23T15:38:44.905Z,-2.90
2018-02-23T15:41:12.447Z,-2.80
2018-02-23T15:43:40.500Z,-2.90
2018-02-23T15:46:08.049Z,-2.90
2018-02-23T15:48:41.254Z,-2.90
2018-02-23T15:51:23.535Z,-2.90
2018-02-23T15:53:51.867Z,-2.80
2018-02-23T15:56:19.390Z,-2.80
2018-02-23T15:58:46.976Z,-2.80
2018-02-23T16:01:14.539Z,-2.80
2018-02-23T16:03:42.096Z,-2.80
2018-02-23T16:06:09.663Z,-2.80
2018-02-23T16:08:37.203Z,-2.90
2018-02-23T16:11:04.764Z,-2.90
2018-02-23T16:13:32.304Z,-2.90
2018-02-23T16:15:59.870Z,-2.90
2018-02-23T16:18:27.400Z,-2.90
2018-02-23T16:20:55.700Z,-2.90
2018-02-23T16:23:23.277Z,-2.90
2018-02-23T16:25:50.818Z,-2.80
2018-02-23T16:28:18.368Z,-2.80
2018-02-23T16:30:45.920Z,-2.80
2018-02-23T16:33:14.234Z,-2.80
2018-02-23T16:35:41.760Z,-2.90
2018-02-23T16:38:10.058Z,-3.00
2018-02-23T16:40:37.597Z,-3.00
2018-02-23T16:43:05.151Z,-2.90
2018-02-23T16:45:33.478Z,-2.90
2018-02-23T16:48:01.023Z,-2.90
2018-02-23T16:50:28.583Z,-3.00
2018-02-23T16:52:56.141Z,-2.90
2018-02-23T16:55:23.713Z,-2.90
2018-02-23T16:57:51.271Z,-2.90
2018-02-23T17:00:18.875Z,-2.90
2018-02-23T17:02:46.403Z,-2.90
2018-02-23T17:05:13.947Z,-2.90
2018-02-23T17:07:41.467Z,-3.00
2018-02-23T17:10:09.767Z,-2.90
2018-02-23T17:12:37.337Z,-3.00
2018-02-23T17:15:04.899Z,-2.90
2018-02-23T17:17:32.448Z,-2.90
2018-02-23T17:19:59.984Z,-2.90
2018-02-23T17:22:27.525Z,-2.90
2018-02-23T17:24:55.824Z,-2.90
2018-02-23T17:27:23.388Z,-2.90
2018-02-23T17:29:51.145Z,-2.90
2018-02-23T17:32:18.726Z,-2.90
2018-02-23T17:34:46.287Z,-2.90
2018-02-23T17:37:13.826Z,-2.90
2018-02-23T17:39:41.383Z,-2.90
2018-02-23T17:42:09.788Z,-2.80
2018-02-23T17:44:37.347Z,-2.80
2018-02-23T17:47:04.896Z,-2.80
2018-02-23T17:49:32.457Z,-2.90
2018-02-23T17:52:00.003Z,-2.90
2018-02-23T17:54:27.592Z,-2.90
2018-02-23T17:56:55.136Z,-3.00
2018-02-23T17:59:22.667Z,-2.90
2018-02-23T18:01:50.983Z,-2.90
2018-02-23T18:04:18.515Z,-2.90
2018-02-23T18:06:46.077Z,-2.90
2018-02-23T18:09:13.625Z,-2.90
2018-02-23T18:11:41.973Z,-2.90
2018-02-23T18:14:09.511Z,-2.90
2018-02-23T18:16:37.081Z,-2.90
2018-02-23T18:19:04.615Z,-2.90
2018-02-23T18:21:32.187Z,-2.90
2018-02-23T18:23:59.711Z,-2.90
2018-02-23T18:26:27.264Z,-2.90
2018-02-23T18:28:54.815Z,-2.90
2018-02-23T18:31:23.100Z,-2.90
2018-02-23T18:33:51.427Z,-2.90
2018-02-23T18:36:19.304Z,-2.90
2018-02-23T18:38:46.856Z,-2.90
2018-02-23T18:41:14.398Z,-2.90
2018-02-23T18:43:41.943Z,-2.90
2018-02-23T18:46:09.474Z,-2.90
2018-02-23T18:48:37.793Z,-2.90
2018-02-23T18:51:05.361Z,-2.90
2018-02-23T18:53:32.910Z,-2.90
2018-02-23T18:56:00.460Z,-2.90
2018-02-23T18:58:28.035Z,-2.90
2018-02-23T19:00:55.596Z,-2.90
2018-02-23T19:03:23.116Z,-2.90
2018-02-23T19:05:51.430Z,-2.90
2018-02-23T19:08:18.964Z,-2.90
2018-02-23T19:10:46.524Z,-2.80
2018-02-23T19:13:14.068Z,-2.80
2018-02-23T19:15:41.593Z,-2.90
2018-02-23T19:18:09.153Z,-2.90
2018-02-23T19:20:36.688Z,-2.90
2018-02-23T19:23:04.230Z,-2.90
2018-02-23T19:25:31.742Z,-2.90
2018-02-23T19:27:59.300Z,-2.90
2018-02-23T19:30:26.859Z,-2.90
2018-02-23T19:32:55.197Z,-2.90
2018-02-23T19:35:22.727Z,-2.90
2018-02-23T19:37:50.264Z,-2.90
2018-02-23T19:40:18.610Z,-3.00
2018-02-23T19:42:46.139Z,-2.90
2018-02-23T19:45:13.804Z,-3.00
2018-02-23T19:47:41.329Z,-3.00
2018-02-23T19:50:09.653Z,-3.00
2018-02-23T19:52:37.181Z,-3.00
2018-02-23T19:55:05.046Z,-2.90
2018-02-23T19:57:32.579Z,-3.00
2018-02-23T20:00:00.927Z,-2.90
2018-02-23T20:02:28.467Z,-2.90
2018-02-23T20:04:56.001Z,-2.90
2018-02-23T20:07:23.693Z,-2.90
2018-02-23T20:09:51.215Z,-2.90
2018-02-23T20:12:19.525Z,-2.80
2018-02-23T20:14:47.046Z,-2.80
2018-02-23T20:17:15.420Z,-2.90
2018-02-23T20:19:45.004Z,-2.90
2018-02-23T20:22:12.774Z,-2.90
2018-02-23T20:24:40.326Z,-2.90
2018-02-23T20:27:07.863Z,-2.90
2018-02-23T20:29:35.417Z,-2.80
2018-02-23T20:32:02.952Z,-2.80
2018-02-23T20:34:30.488Z,-2.90
2018-02-23T20:36:58.768Z,-2.90
2018-02-23T20:39:27.078Z,-2.90
2018-02-23T20:41:54.614Z,-2.80
2018-02-23T20:44:22.185Z,-2.90
2018-02-23T20:46:49.716Z,-2.80
2018-02-23T20:49:18.044Z,-2.80
2018-02-23T20:51:45.573Z,-2.80
2018-02-23T20:54:13.130Z,-2.80
2018-02-23T20:56:40.682Z,-2.80
2018-02-23T20:59:08.215Z,-2.80
2018-02-23T21:01:35.828Z,-2.80
2018-02-23T21:04:03.369Z,-2.80
2018-02-23T21:06:30.920Z,-2.90
2018-02-23T21:08:59.224Z,-2.90
2018-02-23T21:11:26.787Z,-2.90
2018-02-23T21:13:54.319Z,-2.90
2018-02-23T21:16:21.847Z,-2.90
2018-02-23T21:18:49.399Z,-2.80
2018-02-23T21:21:16.931Z,-2.90
2018-02-23T21:23:44.506Z,-2.90
2018-02-23T21:26:12.025Z,-2.80
2018-02-23T21:28:39.592Z,-2.80
2018-02-23T21:31:07.128Z,-2.80
2018-02-23T21:33:35.452Z,-2.80
2018-02-23T21:36:03.042Z,-2.80
2018-02-23T21:38:30.590Z,-2.80
2018-02-23T21:40:58.168Z,-2.80
2018-02-23T21:43:26.467Z,-2.80
2018-02-23T21:45:54.011Z,-2.80
2018-02-23T21:48:22.308Z,-2.80
2018-02-23T21:50:49.857Z,-2.80
2018-02-23T21:53:17.393Z,-2.80
2018-02-23T21:55:45.702Z,-2.80
2018-02-23T21:58:13.256Z,-2.80
2018-02-23T22:00:40.805Z,-2.80
2018-02-23T22:03:09.123Z,-2.80
2018-02-23T22:05:36.656Z,-2.80
2018-02-23T22:08:04.193Z,-2.80
2018-02-23T22:10:32.487Z,-2.80
2018-02-23T22:13:00.024Z,-2.80
2018-02-23T22:15:28.328Z,-2.80
2018-02-23T22:17:55.904Z,-2.90
2018-02-23T22:20:23.423Z,-2.80
2018-02-23T22:22:51.777Z,-2.80
2018-02-23T22:25:19.297Z,-2.80
2018-02-23T22:27:46.848Z,-2.80
2018-02-23T22:30:14.405Z,-2.80
2018-02-23T22:32:41.954Z,-2.80
2018-02-23T22:35:09.549Z,-2.90
2018-02-23T22:37:37.074Z,-3.00
2018-02-23T22:40:04.649Z,-3.00
2018-02-23T22:42:32.205Z,-3.00
2018-02-23T22:44:59.764Z,-3.00
2018-02-23T22:47:27.304Z,-3.00
2018-02-23T22:49:55.603Z,-2.90
2018-02-23T22:52:23.159Z,-2.90
2018-02-23T22:54:50.697Z,-2.90
2018-02-23T22:57:19.045Z,-3.00
2018-02-23T22:59:46.588Z,-3.00
2018-02-23T23:02:14.160Z,-3.00
2018-02-23T23:04:41.710Z,-3.00
2018-02-23T23:07:14.254Z,-3.00
2018-02-23T23:09:41.783Z,-3.00
2018-02-23T23:12:11.948Z,-2.90
2018-02-23T23:14:41.080Z,-3.00
2018-02-23T23:17:08.607Z,-3.00
2018-02-23T23:19:36.154Z,-3.00
2018-02-23T23:22:03.689Z,-2.90
2018-02-23T23:24:32.014Z,-2.90
2018-02-23T23:26:59.577Z,-2.90
2018-02-23T23:29:27.127Z,-2.90
2018-02-23T23:31:54.693Z,-3.00
2018-02-23T23:34:22.256Z,-3.00
2018-02-23T23:36:49.793Z,-2.90
2018-02-23T23:39:17.362Z,-2.90
2018-02-23T23:41:44.916Z,-2.90
2018-02-23T23:44:12.445Z,-2.90
2018-02-23T23:46:40.008Z,-3.00
2018-02-23T23:49:07.529Z,-3.00
2018-02-23T23:51:35.063Z,-3.00
2018-02-23T23:54:02.614Z,-3.00
2018-02-23T23:56:30.193Z,-3.00
2018-02-23T23:58:57.723Z,-3.00
